createdAt,value
2019-05-30T00:00:20.358Z,1.80
2019-05-30T00:02:54.140Z,1.77
2019-05-30T00:05:27.837Z,1.77
2019-05-30T00:08:02.412Z,1.95
2019-05-30T00:10:37.060Z,1.92
2019-05-30T00:13:10.819Z,1.70
2019-05-30T00:15:44.692Z,1.85
2019-05-30T00:18:18.431Z,1.70
2019-05-30T00:20:52.214Z,1.60
2019-05-30T00:23:25.815Z,1.80
2019-05-30T00:25:59.596Z,1.72
2019-05-30T00:28:33.353Z,1.50
2019-05-30T00:31:07.219Z,1.80
2019-05-30T00:33:40.925Z,1.90
2019-05-30T00:36:14.836Z,1.40
2019-05-30T00:38:48.570Z,1.42
2019-05-30T00:41:22.286Z,1.50
2019-05-30T00:43:56.228Z,1.60
2019-05-30T00:46:30.178Z,1.37
2019-05-30T00:49:04.515Z,1.40
2019-05-30T00:51:38.633Z,1.20
2019-05-30T00:54:12.482Z,1.70
2019-05-30T00:56:46.130Z,1.25
2019-05-30T00:59:19.968Z,1.37
2019-05-30T01:01:53.914Z,1.47
2019-05-30T01:04:27.843Z,1.40
2019-05-30T01:07:01.518Z,1.40
2019-05-30T01:09:35.348Z,1.40
2019-05-30T01:12:08.982Z,1.10
2019-05-30T01:14:42.773Z,1.10
2019-05-30T01:17:16.450Z,1.30
2019-05-30T01:19:50.313Z,1.20
2019-05-30T01:22:24.290Z,1.40
2019-05-30T01:24:59.077Z,1.20
2019-05-30T01:27:33.347Z,1.25
2019-05-30T01:30:08.037Z,1.17
2019-05-30T01:32:41.930Z,1.30
2019-05-30T01:35:15.799Z,1.30
2019-05-30T01:37:49.560Z,0.95
2019-05-30T01:40:23.405Z,1.05
2019-05-30T01:42:57.867Z,1.22
2019-05-30T01:45:31.737Z,1.10
2019-05-30T01:48:06.454Z,1.10
2019-05-30T01:50:40.269Z,1.10
2019-05-30T01:53:14.217Z,1.40
2019-05-30T01:55:48.877Z,1.05
2019-05-30T01:58:22.890Z,1.20
2019-05-30T02:00:56.967Z,1.25
2019-05-30T02:03:31.018Z,1.10
2019-05-30T02:06:05.582Z,1.15
2019-05-30T02:08:39.701Z,1.10
2019-05-30T02:11:13.640Z,1.02
2019-05-30T02:13:47.482Z,0.98
2019-05-30T02:16:21.108Z,1.15
2019-05-30T02:18:54.830Z,1.10
2019-05-30T02:21:28.995Z,1.42
2019-05-30T02:24:03.790Z,1.07
2019-05-30T02:26:38.036Z,1.05
2019-05-30T02:29:11.985Z,1.00
2019-05-30T02:31:45.732Z,1.32
2019-05-30T02:34:19.470Z,1.00
2019-05-30T02:36:53.207Z,1.37
2019-05-30T02:39:26.950Z,1.15
2019-05-30T02:42:00.998Z,1.07
2019-05-30T02:44:34.798Z,1.20
2019-05-30T02:47:09.566Z,1.72
2019-05-30T02:49:44.196Z,1.20
2019-05-30T02:52:17.777Z,1.30
2019-05-30T02:54:51.551Z,1.20
2019-05-30T02:57:25.265Z,1.20
2019-05-30T02:59:58.999Z,1.10
2019-05-30T03:02:32.728Z,1.30
2019-05-30T03:05:08.440Z,1.15
2019-05-30T03:07:42.542Z,1.32
2019-05-30T03:10:17.305Z,1.60
2019-05-30T03:12:51.157Z,1.20
2019-05-30T03:15:25.146Z,1.20
2019-05-30T03:17:59.025Z,1.32
2019-05-30T03:20:33.006Z,1.40
2019-05-30T03:23:08.322Z,1.60
2019-05-30T03:25:42.194Z,1.70
2019-05-30T03:28:16.298Z,1.50
2019-05-30T03:30:50.130Z,1.52
2019-05-30T03:33:38.183Z,1.50
2019-05-30T03:35:59.409Z,1.60
2019-05-30T03:38:33.251Z,1.90
2019-05-30T03:41:09.093Z,1.87
2019-05-30T03:43:42.706Z,1.72
2019-05-30T03:46:20.207Z,1.77
2019-05-30T03:48:54.797Z,1.60
2019-05-30T03:51:30.753Z,1.77
2019-05-30T03:54:07.009Z,2.00
2019-05-30T03:56:45.198Z,2.00
2019-05-30T03:59:31.517Z,1.95
2019-05-30T04:02:19.009Z,2.20
2019-05-30T04:04:59.288Z,2.47
2019-05-30T04:07:36.035Z,2.17
2019-05-30T04:10:11.421Z,2.70
2019-05-30T04:13:03.120Z,2.80
2019-05-30T04:15:37.029Z,2.67
2019-05-30T04:18:12.491Z,2.77
2019-05-30T04:20:46.743Z,2.60
2019-05-30T04:23:20.507Z,2.40
2019-05-30T04:25:54.439Z,2.90
2019-05-30T04:28:28.148Z,2.92
2019-05-30T04:31:02.129Z,3.98
2019-05-30T04:33:35.849Z,3.40
2019-05-30T04:36:10.528Z,3.45
2019-05-30T04:38:44.394Z,3.42
2019-05-30T04:41:19.131Z,3.50
2019-05-30T04:43:53.453Z,3.02
2019-05-30T04:46:27.453Z,3.60
2019-05-30T04:49:01.300Z,3.17
2019-05-30T04:51:35.014Z,3.55
2019-05-30T04:54:10.209Z,3.58
2019-05-30T04:56:44.172Z,3.80
2019-05-30T04:59:19.904Z,3.15
2019-05-30T05:01:53.438Z,3.92
2019-05-30T05:04:27.446Z,3.72
2019-05-30T05:07:01.171Z,3.55
2019-05-30T05:09:34.896Z,3.70
2019-05-30T05:12:09.015Z,3.98
2019-05-30T05:14:42.862Z,3.98
2019-05-30T05:17:16.907Z,3.85
2019-05-30T05:19:50.887Z,3.58
2019-05-30T05:22:24.590Z,4.80
2019-05-30T05:24:58.414Z,4.42
2019-05-30T05:27:32.209Z,4.30
2019-05-30T05:30:08.378Z,3.72
2019-05-30T05:32:42.061Z,4.45
2019-05-30T05:35:16.896Z,4.58
2019-05-30T05:37:50.630Z,4.95
2019-05-30T05:40:24.474Z,5.08
2019-05-30T05:42:58.463Z,5.40
2019-05-30T05:45:32.564Z,5.53
2019-05-30T05:48:06.448Z,5.65
2019-05-30T05:50:40.337Z,6.47
2019-05-30T05:53:16.647Z,5.85
2019-05-30T05:55:50.467Z,6.28
2019-05-30T05:58:26.156Z,7.20
2019-05-30T06:00:59.483Z,6.08
2019-05-30T06:03:33.161Z,6.80
2019-05-30T06:06:07.009Z,7.17
2019-05-30T06:08:40.704Z,7.78
2019-05-30T06:11:14.517Z,7.72
2019-05-30T06:13:48.343Z,7.35
2019-05-30T06:16:22.161Z,7.78
2019-05-30T06:18:55.992Z,8.08
2019-05-30T06:21:29.769Z,8.80
2019-05-30T06:24:03.768Z,8.25
2019-05-30T06:26:37.695Z,7.58
2019-05-30T06:29:11.679Z,8.65
2019-05-30T06:31:45.292Z,9.40
2019-05-30T06:34:30.351Z,8.68
2019-05-30T06:36:54.549Z,8.48
2019-05-30T06:39:29.563Z,7.90
2019-05-30T06:42:03.628Z,8.28
2019-05-30T06:44:37.585Z,8.28
2019-05-30T06:47:11.390Z,8.55
2019-05-30T06:49:45.391Z,8.15
2019-05-30T06:52:19.250Z,7.92
2019-05-30T06:54:53.166Z,8.60
2019-05-30T06:57:27.286Z,9.13
2019-05-30T07:00:01.380Z,8.80
2019-05-30T07:02:35.190Z,9.10
2019-05-30T07:05:10.021Z,8.43
2019-05-30T07:07:44.486Z,8.90
2019-05-30T07:10:18.577Z,9.00
2019-05-30T07:12:52.389Z,9.35
2019-05-30T07:15:27.255Z,8.90
2019-05-30T07:18:01.331Z,9.03
2019-05-30T07:20:35.378Z,8.18
2019-05-30T07:23:09.190Z,9.13
2019-05-30T07:25:43.087Z,8.40
2019-05-30T07:28:16.854Z,8.28
2019-05-30T07:30:50.654Z,8.40
2019-05-30T07:46:40.611Z,7.50
2019-05-30T07:49:14.386Z,7.45
2019-05-30T07:51:48.139Z,7.65
2019-05-30T07:54:21.961Z,8.15
2019-05-30T07:56:55.801Z,7.97
2019-05-30T07:59:30.344Z,7.22
2019-05-30T08:02:04.776Z,8.05
2019-05-30T08:04:40.439Z,6.92
2019-05-30T08:07:14.241Z,7.42
2019-05-30T08:09:49.721Z,7.22
2019-05-30T08:12:23.727Z,6.70
2019-05-30T08:15:04.841Z,7.22
2019-05-30T08:17:38.674Z,8.53
2019-05-30T08:20:12.709Z,6.97
2019-05-30T08:22:46.877Z,6.58
2019-05-30T08:25:20.680Z,6.15
2019-05-30T08:27:54.541Z,6.78
2019-05-30T08:30:28.569Z,7.42
2019-05-30T08:33:02.416Z,6.37
2019-05-30T08:35:47.698Z,6.67
2019-05-30T08:38:13.436Z,7.40
2019-05-30T08:40:47.157Z,6.90
2019-05-30T08:43:20.958Z,7.00
2019-05-30T08:45:56.337Z,7.05
2019-05-30T08:48:30.219Z,6.83
2019-05-30T08:51:04.083Z,6.60
2019-05-30T08:53:38.450Z,5.33
2019-05-30T08:56:12.684Z,5.85
2019-05-30T08:58:46.382Z,5.90
2019-05-30T09:01:20.224Z,5.80
2019-05-30T09:03:57.295Z,5.50
2019-05-30T09:06:31.154Z,4.92
2019-05-30T09:09:06.537Z,5.37
2019-05-30T09:11:40.605Z,5.08
2019-05-30T09:14:14.600Z,5.40
2019-05-30T09:16:49.572Z,5.03
2019-05-30T09:19:23.942Z,4.60
2019-05-30T09:21:57.719Z,4.70
2019-05-30T09:24:31.528Z,4.97
2019-05-30T09:27:05.554Z,4.87
2019-05-30T09:29:41.013Z,5.42
2019-05-30T09:32:14.645Z,4.70
2019-05-30T09:34:48.894Z,4.87
2019-05-30T09:37:23.136Z,4.60
2019-05-30T09:39:57.030Z,4.58
2019-05-30T09:42:30.734Z,4.58
2019-05-30T09:45:06.219Z,5.20
2019-05-30T09:47:41.326Z,4.80
2019-05-30T09:50:15.967Z,5.37
2019-05-30T09:52:51.218Z,4.75
2019-05-30T09:55:25.408Z,4.65
2019-05-30T09:57:59.062Z,5.12
2019-05-30T10:00:33.340Z,5.00
2019-05-30T10:03:07.019Z,5.15
2019-05-30T10:05:43.314Z,5.37
2019-05-30T10:08:16.618Z,4.10
2019-05-30T10:10:51.353Z,4.60
2019-05-30T10:13:25.631Z,5.25
2019-05-30T10:15:59.418Z,5.10
2019-05-30T10:18:33.077Z,5.03
2019-05-30T10:21:06.896Z,5.12
2019-05-30T10:23:41.027Z,5.17
2019-05-30T10:26:15.094Z,5.67
2019-05-30T10:28:49.541Z,5.12
2019-05-30T10:31:23.594Z,5.35
2019-05-30T10:33:57.281Z,5.20
2019-05-30T10:36:43.343Z,5.17
2019-05-30T10:39:08.105Z,5.17
2019-05-30T10:41:41.872Z,6.03
2019-05-30T10:44:15.745Z,5.78
2019-05-30T10:46:50.784Z,6.00
2019-05-30T10:49:34.413Z,6.30
2019-05-30T10:52:00.325Z,5.55
2019-05-30T10:54:34.076Z,6.17
2019-05-30T10:57:07.957Z,6.40
2019-05-30T10:59:41.786Z,6.42
2019-05-30T11:02:15.779Z,6.62
2019-05-30T11:04:50.717Z,6.35
2019-05-30T11:07:37.010Z,6.78
2019-05-30T11:10:12.884Z,6.53
2019-05-30T11:12:48.051Z,6.33
2019-05-30T11:15:22.278Z,6.28
2019-05-30T11:17:56.238Z,6.72
2019-05-30T11:20:30.046Z,5.62
2019-05-30T11:23:03.736Z,6.70
2019-05-30T11:25:37.525Z,7.20
2019-05-30T11:28:11.377Z,6.90
2019-05-30T11:30:45.293Z,7.17
2019-05-30T11:33:18.983Z,6.70
2019-05-30T11:35:53.136Z,6.17
2019-05-30T11:38:27.143Z,6.95
2019-05-30T11:41:00.951Z,6.37
2019-05-30T11:43:34.768Z,6.95
2019-05-30T11:46:08.872Z,6.78
2019-05-30T11:48:42.642Z,7.12
2019-05-30T11:51:16.482Z,6.30
2019-05-30T11:53:50.301Z,7.33
2019-05-30T11:56:23.972Z,7.42
2019-05-30T11:58:58.074Z,5.92
2019-05-30T12:01:32.004Z,7.53
2019-05-30T12:04:05.726Z,7.15
2019-05-30T12:06:39.810Z,7.05
2019-05-30T12:09:14.640Z,6.70
2019-05-30T12:11:48.544Z,7.00
2019-05-30T12:14:22.314Z,7.25
2019-05-30T12:16:57.235Z,7.10
2019-05-30T12:19:31.310Z,7.22
2019-05-30T12:22:06.673Z,7.05
2019-05-30T12:24:40.359Z,7.80
2019-05-30T12:27:14.232Z,7.65
2019-05-30T12:29:47.953Z,6.97
2019-05-30T12:32:21.640Z,7.17
2019-05-30T12:34:56.357Z,7.55
2019-05-30T12:37:30.427Z,7.53
2019-05-30T12:40:05.177Z,7.67
2019-05-30T12:42:38.911Z,7.30
2019-05-30T12:45:13.559Z,6.60
2019-05-30T12:47:47.353Z,7.37
2019-05-30T12:50:21.352Z,6.30
2019-05-30T12:52:55.487Z,6.60
2019-05-30T12:55:29.327Z,6.80
2019-05-30T12:58:03.099Z,6.25
2019-05-30T13:00:37.453Z,7.25
2019-05-30T13:03:11.179Z,6.65
2019-05-30T13:05:44.994Z,6.40
2019-05-30T13:08:21.956Z,6.65
2019-05-30T13:10:55.443Z,6.65
2019-05-30T13:13:29.291Z,6.70
2019-05-30T13:16:07.047Z,7.00
2019-05-30T13:18:38.790Z,6.03
2019-05-30T13:21:12.683Z,6.35
2019-05-30T13:23:46.413Z,7.45
2019-05-30T13:26:20.073Z,6.47
2019-05-30T13:28:53.756Z,6.20
2019-05-30T13:31:27.572Z,6.50
2019-05-30T13:34:01.207Z,6.35
2019-05-30T13:36:35.370Z,5.55
2019-05-30T13:39:09.031Z,6.15
2019-05-30T13:41:42.755Z,5.85
2019-05-30T13:44:16.485Z,5.92
2019-05-30T13:46:50.157Z,6.08
2019-05-30T13:49:23.775Z,5.22
2019-05-30T13:51:59.273Z,5.95
2019-05-30T13:54:33.039Z,6.12
2019-05-30T13:57:07.826Z,5.45
2019-05-30T13:59:41.822Z,7.15
2019-05-30T14:02:15.477Z,7.00
2019-05-30T14:04:49.325Z,6.53
2019-05-30T14:07:23.195Z,6.85
2019-05-30T14:09:57.504Z,6.92
2019-05-30T14:12:31.103Z,6.45
2019-05-30T14:15:10.035Z,6.20
2019-05-30T14:17:42.218Z,7.05
2019-05-30T14:20:16.935Z,5.35
2019-05-30T14:22:50.782Z,6.33
2019-05-30T14:25:24.530Z,6.95
2019-05-30T14:27:58.605Z,6.78
2019-05-30T14:30:32.424Z,7.67
2019-05-30T14:33:06.603Z,6.78
2019-05-30T14:35:42.996Z,6.87
2019-05-30T14:38:16.691Z,6.17
2019-05-30T14:40:51.478Z,6.62
2019-05-30T14:43:25.151Z,6.50
2019-05-30T14:45:58.860Z,6.60
2019-05-30T14:48:32.966Z,5.28
2019-05-30T14:51:06.712Z,5.50
2019-05-30T14:53:40.440Z,6.55
2019-05-30T14:56:14.156Z,6.92
2019-05-30T14:58:47.941Z,6.67
2019-05-30T15:01:21.637Z,6.75
2019-05-30T15:03:55.445Z,7.37
2019-05-30T15:06:29.640Z,7.20
2019-05-30T15:09:15.215Z,8.08
2019-05-30T15:11:39.568Z,6.05
2019-05-30T15:14:13.442Z,6.50
2019-05-30T15:16:47.605Z,5.80
2019-05-30T15:19:21.306Z,5.37
2019-05-30T15:21:55.051Z,5.53
2019-05-30T15:24:28.753Z,6.12
2019-05-30T15:27:03.727Z,6.20
2019-05-30T15:29:37.507Z,6.03
2019-05-30T15:32:12.321Z,5.00
2019-05-30T15:34:46.442Z,5.45
2019-05-30T15:37:20.050Z,6.00
2019-05-30T15:39:56.679Z,5.70
2019-05-30T15:42:30.468Z,5.50
2019-05-30T15:45:05.261Z,5.47
2019-05-30T15:47:39.173Z,4.80
2019-05-30T15:50:15.376Z,4.80
2019-05-30T15:52:49.661Z,4.78
2019-05-30T15:55:23.406Z,4.42
2019-05-30T15:57:57.166Z,4.05
2019-05-30T16:00:31.254Z,3.90
2019-05-30T16:03:04.988Z,3.70
2019-05-30T16:05:38.599Z,3.72
2019-05-30T16:08:12.650Z,4.12
2019-05-30T16:10:46.473Z,3.90
2019-05-30T16:13:21.476Z,4.00
2019-05-30T16:15:55.585Z,3.65
2019-05-30T16:18:29.350Z,3.70
2019-05-30T16:21:03.367Z,3.30
2019-05-30T16:23:37.384Z,3.30
2019-05-30T16:26:11.164Z,3.90
2019-05-30T16:28:44.921Z,3.30
2019-05-30T16:31:19.838Z,2.98
2019-05-30T16:33:53.631Z,3.27
2019-05-30T16:36:27.448Z,3.30
2019-05-30T16:39:01.268Z,3.10
2019-05-30T16:41:35.162Z,2.52
2019-05-30T16:44:08.998Z,2.70
2019-05-30T16:46:42.750Z,2.98
2019-05-30T16:49:16.506Z,3.35
2019-05-30T16:51:50.398Z,3.17
2019-05-30T16:54:24.210Z,2.90
2019-05-30T16:56:58.124Z,3.30
2019-05-30T16:59:31.798Z,3.20
2019-05-30T17:02:05.773Z,3.10
2019-05-30T17:04:39.392Z,2.90
2019-05-30T17:07:13.173Z,3.50
2019-05-30T17:09:46.911Z,3.35
2019-05-30T17:12:21.744Z,3.02
2019-05-30T17:14:55.648Z,3.00
2019-05-30T17:17:29.435Z,3.53
2019-05-30T17:20:03.794Z,3.50
2019-05-30T17:22:37.680Z,3.35
2019-05-30T17:25:11.809Z,3.75
2019-05-30T17:27:45.550Z,3.60
2019-05-30T17:30:19.696Z,3.80
2019-05-30T17:32:53.570Z,3.40
2019-05-30T17:35:28.553Z,3.72
2019-05-30T17:38:02.775Z,3.10
2019-05-30T17:40:44.491Z,4.20
2019-05-30T17:43:11.930Z,3.20
2019-05-30T17:45:45.866Z,3.60
2019-05-30T17:48:19.619Z,3.40
2019-05-30T17:50:53.229Z,4.03
2019-05-30T17:53:27.990Z,3.27
2019-05-30T17:56:01.848Z,3.20
2019-05-30T17:58:35.832Z,3.08
2019-05-30T18:01:09.843Z,3.05
2019-05-30T18:03:43.661Z,3.22
2019-05-30T18:06:17.388Z,3.15
2019-05-30T18:08:51.098Z,3.17
2019-05-30T18:11:24.984Z,3.70
2019-05-30T18:13:59.125Z,3.42
2019-05-30T18:16:32.932Z,3.42
2019-05-30T18:19:06.672Z,3.10
2019-05-30T18:21:40.416Z,3.10
2019-05-30T18:24:14.189Z,3.27
2019-05-30T18:26:47.975Z,3.52
2019-05-30T18:29:21.826Z,3.27
2019-05-30T18:31:59.534Z,2.70
2019-05-30T18:34:33.259Z,3.33
2019-05-30T18:37:07.098Z,3.27
2019-05-30T18:39:41.095Z,2.87
2019-05-30T18:42:14.991Z,3.20
2019-05-30T18:44:48.761Z,3.00
2019-05-30T18:47:22.969Z,2.92
2019-05-30T18:49:56.753Z,3.17
2019-05-30T18:52:30.572Z,3.05
2019-05-30T18:55:05.526Z,2.83
2019-05-30T18:57:39.238Z,3.40
2019-05-30T19:00:16.078Z,2.87
2019-05-30T19:02:49.664Z,3.10
2019-05-30T19:05:24.490Z,2.70
2019-05-30T19:07:58.472Z,3.42
2019-05-30T19:10:32.461Z,3.02
2019-05-30T19:13:09.323Z,2.92
2019-05-30T19:15:43.261Z,3.90
2019-05-30T19:18:17.042Z,3.22
2019-05-30T19:20:50.880Z,2.72
2019-05-30T19:23:25.899Z,2.55
2019-05-30T19:25:59.700Z,3.08
2019-05-30T19:28:34.627Z,2.60
2019-05-30T19:31:09.351Z,3.37
2019-05-30T19:33:43.315Z,2.95
2019-05-30T19:36:17.073Z,2.80
2019-05-30T19:38:50.960Z,3.00
2019-05-30T19:41:24.762Z,2.72
2019-05-30T19:43:58.542Z,2.87
2019-05-30T19:46:34.132Z,2.80
2019-05-30T19:49:08.139Z,2.92
2019-05-30T19:51:42.248Z,3.55
2019-05-30T19:54:16.082Z,3.27
2019-05-30T19:56:49.781Z,3.30
2019-05-30T19:59:23.566Z,3.08
2019-05-30T20:01:57.222Z,5.00
2019-05-30T20:04:32.205Z,4.28
2019-05-30T20:07:06.152Z,3.30
2019-05-30T20:09:40.793Z,4.43
2019-05-30T20:12:14.951Z,3.75
2019-05-30T20:14:48.762Z,3.30
2019-05-30T20:17:22.632Z,3.17
2019-05-30T20:19:56.554Z,2.75
2019-05-30T20:22:30.301Z,3.33
2019-05-30T20:25:05.077Z,3.35
2019-05-30T20:27:39.147Z,3.12
2019-05-30T20:30:15.008Z,3.40
2019-05-30T20:32:48.890Z,3.45
2019-05-30T20:35:22.800Z,3.33
2019-05-30T20:37:56.568Z,3.08
2019-05-30T20:40:30.547Z,3.30
2019-05-30T20:43:04.543Z,3.08
2019-05-30T20:45:44.676Z,3.00
2019-05-30T20:48:13.824Z,3.33
2019-05-30T20:50:47.572Z,3.20
2019-05-30T20:53:21.291Z,4.35
2019-05-30T20:55:55.122Z,3.37
2019-05-30T20:58:31.595Z,4.03
2019-05-30T21:01:05.674Z,3.50
2019-05-30T21:03:39.745Z,3.10
2019-05-30T21:06:13.844Z,3.85
2019-05-30T21:08:49.958Z,3.62
2019-05-30T21:11:27.712Z,3.47
2019-05-30T21:14:04.342Z,3.10
2019-05-30T21:16:39.919Z,3.40
2019-05-30T21:19:13.910Z,2.95
2019-05-30T21:21:47.821Z,3.05
2019-05-30T21:24:21.545Z,3.40
2019-05-30T21:26:55.368Z,3.40
2019-05-30T21:29:29.185Z,3.60
2019-05-30T21:32:03.315Z,3.40
2019-05-30T21:34:37.703Z,3.75
2019-05-30T21:37:12.244Z,3.47
2019-05-30T21:39:51.171Z,3.67
2019-05-30T21:42:24.933Z,3.20
2019-05-30T21:44:58.768Z,3.85
2019-05-30T21:47:32.867Z,4.37
2019-05-30T21:50:07.291Z,3.55
2019-05-30T21:52:41.513Z,3.47
2019-05-30T21:55:15.621Z,3.83
2019-05-30T21:57:50.130Z,3.65
2019-05-30T22:00:42.263Z,3.80
2019-05-30T22:03:16.532Z,3.55
2019-05-30T22:05:51.971Z,4.03
2019-05-30T22:08:27.037Z,4.15
2019-05-30T22:11:00.816Z,3.80
2019-05-30T22:13:34.551Z,4.47
2019-05-30T22:16:08.860Z,3.98
2019-05-30T22:18:44.014Z,4.62
2019-05-30T22:21:18.095Z,4.35
2019-05-30T22:23:52.576Z,4.03
2019-05-30T22:26:26.906Z,4.08
2019-05-30T22:29:00.893Z,4.62
2019-05-30T22:31:34.576Z,4.50
2019-05-30T22:34:08.422Z,4.62
2019-05-30T22:36:42.739Z,4.05
2019-05-30T22:39:16.875Z,4.08
2019-05-30T22:41:50.725Z,5.00
2019-05-30T22:44:24.332Z,5.00
2019-05-30T22:46:58.066Z,4.33
2019-05-30T22:49:31.886Z,3.85
2019-05-30T22:52:05.686Z,4.08
2019-05-30T22:54:39.390Z,3.55
2019-05-30T22:57:13.349Z,4.03
2019-05-30T22:59:47.221Z,3.50
2019-05-30T23:02:21.000Z,3.77
2019-05-30T23:04:54.774Z,3.95
2019-05-30T23:07:28.485Z,4.00
2019-05-30T23:10:04.423Z,3.72
2019-05-30T23:12:38.221Z,4.00
2019-05-30T23:15:12.049Z,3.95
2019-05-30T23:17:46.249Z,4.10
2019-05-30T23:20:20.420Z,4.15
2019-05-30T23:22:55.142Z,4.05
2019-05-30T23:25:29.236Z,4.35
2019-05-30T23:28:03.403Z,4.78
2019-05-30T23:30:37.183Z,4.67
2019-05-30T23:33:11.046Z,5.12
2019-05-30T23:35:44.851Z,5.28
2019-05-30T23:38:18.613Z,4.97
2019-05-30T23:40:52.977Z,5.45
2019-05-30T23:43:26.768Z,5.47
2019-05-30T23:46:00.387Z,5.10
2019-05-30T23:48:34.269Z,5.75
2019-05-30T23:51:08.188Z,5.78
2019-05-30T23:53:42.057Z,5.60
2019-05-30T23:56:15.770Z,5.28
2019-05-30T23:58:50.540Z,6.20
